sensor_id;sensor_type;location;lat;lon;timestamp;temperature;humidity
26687;DHT22;14298;50.900;4.648;2022-12-10T00:02:15;0.10;97.10
26687;DHT22;14298;50.900;4.648;2022-12-10T00:04:44;0.00;97.10
26687;DHT22;14298;50.900;4.648;2022-12-10T00:07:12;0.00;97.10
26687;DHT22;14298;50.900;4.648;2022-12-10T00:09:40;0.00;97.10
26687;DHT22;14298;50.900;4.648;2022-12-10T00:12:09;0.10;97.10
26687;DHT22;14298;50.900;4.648;2022-12-10T00:14:37;0.10;97.10
26687;DHT22;14298;50.900;4.648;2022-12-10T00:17:06;0.10;97.10
26687;DHT22;14298;50.900;4.648;2022-12-10T00:19:34;0.10;97.10
26687;DHT22;14298;50.900;4.648;2022-12-10T00:22:02;0.10;97.10
26687;DHT22;14298;50.900;4.648;2022-12-10T00:24:30;0.10;97.10
26687;DHT22;14298;50.900;4.648;2022-12-10T00:26:59;0.10;97.10
26687;DHT22;14298;50.900;4.648;2022-12-10T00:29:27;0.00;97.10
26687;DHT22;14298;50.900;4.648;2022-12-10T00:31:55;-0.10;97.10
26687;DHT22;14298;50.900;4.648;2022-12-10T00:34:24;-0.20;97.10
26687;DHT22;14298;50.900;4.648;2022-12-10T00:36:52;-0.20;97.10
26687;DHT22;14298;50.900;4.648;2022-12-10T00:39:21;-0.10;97.10
26687;DHT22;14298;50.900;4.648;2022-12-10T00:41:50;-0.20;97.10
26687;DHT22;14298;50.900;4.648;2022-12-10T00:44:18;-0.20;97.10
26687;DHT22;14298;50.900;4.648;2022-12-10T00:46:46;-0.10;97.10
26687;DHT22;14298;50.900;4.648;2022-12-10T00:49:14;0.00;97.10
26687;DHT22;14298;50.900;4.648;2022-12-10T00:51:43;-0.10;97.10
26687;DHT22;14298;50.900;4.648;2022-12-10T00:54:11;-0.20;97.10
26687;DHT22;14298;50.900;4.648;2022-12-10T00:56:40;-0.10;97.10
26687;DHT22;14298;50.900;4.648;2022-12-10T00:59:08;-0.10;97.10
26687;DHT22;14298;50.900;4.648;2022-12-10T01:01:40;-0.10;97.10
26687;DHT22;14298;50.900;4.648;2022-12-10T01:04:11;0.00;97.10
26687;DHT22;14298;50.900;4.648;2022-12-10T01:06:45;-0.10;97.10
26687;DHT22;14298;50.900;4.648;2022-12-10T01:09:17;-0.10;97.10
26687;DHT22;14298;50.900;4.648;2022-12-10T01:11:47;-0.10;97.10
26687;DHT22;14298;50.900;4.648;2022-12-10T01:14:22;-0.30;97.10
26687;DHT22;14298;50.900;4.648;2022-12-10T01:16:48;-0.40;97.10
26687;DHT22;14298;50.900;4.648;2022-12-10T01:19:16;-0.40;97.10
26687;DHT22;14298;50.900;4.648;2022-12-10T01:21:45;-0.40;97.10
26687;DHT22;14298;50.900;4.648;2022-12-10T01:24:13;-0.40;97.10
26687;DHT22;14298;50.900;4.648;2022-12-10T01:26:41;-0.40;97.10
26687;DHT22;14298;50.900;4.648;2022-12-10T01:29:11;-0.30;97.10
26687;DHT22;14298;50.900;4.648;2022-12-10T01:31:40;-0.20;97.10
26687;DHT22;14298;50.900;4.648;2022-12-10T01:34:11;-0.30;97.10
26687;DHT22;14298;50.900;4.648;2022-12-10T01:36:42;-0.30;97.10
26687;DHT22;14298;50.900;4.648;2022-12-10T01:39:14;-0.40;97.10
26687;DHT22;14298;50.900;4.648;2022-12-10T01:41:46;-0.40;97.10
26687;DHT22;14298;50.900;4.648;2022-12-10T01:49:39;-0.70;97.10
26687;DHT22;14298;50.900;4.648;2022-12-10T01:52:10;-0.70;97.10
26687;DHT22;14298;50.900;4.648;2022-12-10T01:54:42;-0.70;97.10
26687;DHT22;14298;50.900;4.648;2022-12-10T01:59:48;-0.80;97.10
26687;DHT22;14298;50.900;4.648;2022-12-10T02:02:30;-0.80;97.10
26687;DHT22;14298;50.900;4.648;2022-12-10T02:05:34;-0.80;97.10
26687;DHT22;14298;50.900;4.648;2022-12-10T02:08:39;-0.80;97.10
26687;DHT22;14298;50.900;4.648;2022-12-10T02:11:19;-0.80;97.10
26687;DHT22;14298;50.900;4.648;2022-12-10T02:14:54;-0.80;97.10
26687;DHT22;14298;50.900;4.648;2022-12-10T02:16:33;-0.90;97.10
26687;DHT22;14298;50.900;4.648;2022-12-10T02:19:09;-1.00;97.10
26687;DHT22;14298;50.900;4.648;2022-12-10T02:21:40;-1.00;97.10
26687;DHT22;14298;50.900;4.648;2022-12-10T02:24:11;-1.10;97.10
26687;DHT22;14298;50.900;4.648;2022-12-10T02:26:45;-1.10;97.10
26687;DHT22;14298;50.900;4.648;2022-12-10T02:32:17;-1.10;97.10
26687;DHT22;14298;50.900;4.648;2022-12-10T02:35:07;-1.10;97.10
26687;DHT22;14298;50.900;4.648;2022-12-10T02:37:38;-1.10;97.10
26687;DHT22;14298;50.900;4.648;2022-12-10T02:40:09;-1.00;97.10
26687;DHT22;14298;50.900;4.648;2022-12-10T02:42:40;-1.00;97.10
26687;DHT22;14298;50.900;4.648;2022-12-10T02:45:10;-0.90;97.10
26687;DHT22;14298;50.900;4.648;2022-12-10T02:47:40;-0.80;97.10
26687;DHT22;14298;50.900;4.648;2022-12-10T02:50:10;-0.70;97.10
26687;DHT22;14298;50.900;4.648;2022-12-10T02:52:40;-0.60;97.10
26687;DHT22;14298;50.900;4.648;2022-12-10T02:55:12;-0.60;97.10
26687;DHT22;14298;50.900;4.648;2022-12-10T02:57:47;-0.60;97.10
26687;DHT22;14298;50.900;4.648;2022-12-10T03:00:20;-0.50;97.10
26687;DHT22;14298;50.900;4.648;2022-12-10T03:06:04;-0.50;97.10
26687;DHT22;14298;50.900;4.648;2022-12-10T03:08:40;-0.40;97.10
26687;DHT22;14298;50.900;4.648;2022-12-10T03:11:27;-0.40;97.10
26687;DHT22;14298;50.900;4.648;2022-12-10T03:13:58;-0.40;97.10
26687;DHT22;14298;50.900;4.648;2022-12-10T03:16:29;-0.40;97.10
26687;DHT22;14298;50.900;4.648;2022-12-10T03:19:01;-0.40;97.10
26687;DHT22;14298;50.900;4.648;2022-12-10T03:21:30;-0.40;97.10
26687;DHT22;14298;50.900;4.648;2022-12-10T03:24:00;-0.40;97.10
26687;DHT22;14298;50.900;4.648;2022-12-10T03:26:29;-0.40;97.10
26687;DHT22;14298;50.900;4.648;2022-12-10T03:29:01;-0.40;97.10
26687;DHT22;14298;50.900;4.648;2022-12-10T03:31:30;-0.40;97.10
26687;DHT22;14298;50.900;4.648;2022-12-10T03:33:59;-0.50;97.10
26687;DHT22;14298;50.900;4.648;2022-12-10T03:36:28;-0.50;97.10
26687;DHT22;14298;50.900;4.648;2022-12-10T03:38:58;-0.50;97.10
26687;DHT22;14298;50.900;4.648;2022-12-10T03:41:26;-0.40;97.10
26687;DHT22;14298;50.900;4.648;2022-12-10T03:43:58;-0.50;97.10
26687;DHT22;14298;50.900;4.648;2022-12-10T03:49:15;-0.60;97.10
26687;DHT22;14298;50.900;4.648;2022-12-10T03:51:44;-0.60;97.10
26687;DHT22;14298;50.900;4.648;2022-12-10T03:54:12;-0.60;97.10
26687;DHT22;14298;50.900;4.648;2022-12-10T03:56:40;-0.70;97.10
26687;DHT22;14298;50.900;4.648;2022-12-10T03:59:09;-0.60;97.10
26687;DHT22;14298;50.900;4.648;2022-12-10T04:01:37;-0.50;97.10
26687;DHT22;14298;50.900;4.648;2022-12-10T04:04:06;-0.50;97.10
26687;DHT22;14298;50.900;4.648;2022-12-10T04:06:36;-0.50;97.10
26687;DHT22;14298;50.900;4.648;2022-12-10T04:09:04;-0.40;97.10
26687;DHT22;14298;50.900;4.648;2022-12-10T04:11:33;-0.40;97.10
26687;DHT22;14298;50.900;4.648;2022-12-10T04:14:20;-0.40;97.10
26687;DHT22;14298;50.900;4.648;2022-12-10T04:17:06;-0.40;97.10
26687;DHT22;14298;50.900;4.648;2022-12-10T04:19:35;-0.40;97.10
26687;DHT22;14298;50.900;4.648;2022-12-10T04:22:04;-0.40;97.10
26687;DHT22;14298;50.900;4.648;2022-12-10T04:24:50;-0.30;97.10
26687;DHT22;14298;50.900;4.648;2022-12-10T04:27:38;-0.30;97.10
26687;DHT22;14298;50.900;4.648;2022-12-10T04:30:09;-0.50;97.10
26687;DHT22;14298;50.900;4.648;2022-12-10T04:32:38;-0.50;97.10
26687;DHT22;14298;50.900;4.648;2022-12-10T04:35:07;-0.60;97.10
26687;DHT22;14298;50.900;4.648;2022-12-10T04:37:35;-0.60;97.10
26687;DHT22;14298;50.900;4.648;2022-12-10T04:40:05;-0.60;97.10
26687;DHT22;14298;50.900;4.648;2022-12-10T04:42:34;-0.60;97.10
26687;DHT22;14298;50.900;4.648;2022-12-10T04:45:02;-0.60;97.10
26687;DHT22;14298;50.900;4.648;2022-12-10T04:47:31;-0.70;97.10
26687;DHT22;14298;50.900;4.648;2022-12-10T04:49:59;-0.70;97.10
26687;DHT22;14298;50.900;4.648;2022-12-10T04:52:27;-0.70;97.10
26687;DHT22;14298;50.900;4.648;2022-12-10T04:54:55;-0.70;97.10
26687;DHT22;14298;50.900;4.648;2022-12-10T04:57:24;-0.80;97.10
26687;DHT22;14298;50.900;4.648;2022-12-10T04:59:52;-0.80;97.10
26687;DHT22;14298;50.900;4.648;2022-12-10T05:02:21;-0.80;97.10
26687;DHT22;14298;50.900;4.648;2022-12-10T05:04:49;-0.80;97.10
26687;DHT22;14298;50.900;4.648;2022-12-10T05:07:18;-0.70;97.10
26687;DHT22;14298;50.900;4.648;2022-12-10T05:09:46;-0.70;97.10
26687;DHT22;14298;50.900;4.648;2022-12-10T05:12:23;-0.60;97.10
26687;DHT22;14298;50.900;4.648;2022-12-10T05:14:52;-0.70;97.10
26687;DHT22;14298;50.900;4.648;2022-12-10T05:17:20;-0.60;97.10
26687;DHT22;14298;50.900;4.648;2022-12-10T05:19:48;-0.60;97.10
26687;DHT22;14298;50.900;4.648;2022-12-10T05:22:17;-0.60;97.10
26687;DHT22;14298;50.900;4.648;2022-12-10T05:25:03;-0.50;97.10
26687;DHT22;14298;50.900;4.648;2022-12-10T05:27:34;-0.50;97.10
26687;DHT22;14298;50.900;4.648;2022-12-10T05:30:02;-0.60;97.10
26687;DHT22;14298;50.900;4.648;2022-12-10T05:32:30;-0.60;97.10
26687;DHT22;14298;50.900;4.648;2022-12-10T05:34:59;-0.80;97.10
26687;DHT22;14298;50.900;4.648;2022-12-10T05:37:28;-0.80;97.10
26687;DHT22;14298;50.900;4.648;2022-12-10T05:39:56;-0.70;97.10
26687;DHT22;14298;50.900;4.648;2022-12-10T05:42:24;-0.80;97.10
26687;DHT22;14298;50.900;4.648;2022-12-10T05:44:53;-0.70;97.10
26687;DHT22;14298;50.900;4.648;2022-12-10T05:47:21;-0.70;97.10
26687;DHT22;14298;50.900;4.648;2022-12-10T05:49:49;-0.90;97.10
26687;DHT22;14298;50.900;4.648;2022-12-10T05:52:17;-0.80;97.10
26687;DHT22;14298;50.900;4.648;2022-12-10T05:54:46;-0.80;97.10
26687;DHT22;14298;50.900;4.648;2022-12-10T05:57:14;-0.80;97.10
26687;DHT22;14298;50.900;4.648;2022-12-10T05:59:43;-0.80;97.10
26687;DHT22;14298;50.900;4.648;2022-12-10T06:02:11;-0.80;97.10
26687;DHT22;14298;50.900;4.648;2022-12-10T06:04:39;-0.80;97.10
26687;DHT22;14298;50.900;4.648;2022-12-10T06:07:07;-0.70;97.10
26687;DHT22;14298;50.900;4.648;2022-12-10T06:09:36;-0.70;97.10
26687;DHT22;14298;50.900;4.648;2022-12-10T06:12:23;-0.70;97.10
26687;DHT22;14298;50.900;4.648;2022-12-10T06:14:52;-0.70;97.10
26687;DHT22;14298;50.900;4.648;2022-12-10T06:17:20;-0.70;97.10
26687;DHT22;14298;50.900;4.648;2022-12-10T06:19:50;-0.70;97.10
26687;DHT22;14298;50.900;4.648;2022-12-10T06:22:18;-0.70;97.10
26687;DHT22;14298;50.900;4.648;2022-12-10T06:24:46;-0.80;97.10
26687;DHT22;14298;50.900;4.648;2022-12-10T06:27:15;-0.80;97.10
26687;DHT22;14298;50.900;4.648;2022-12-10T06:29:44;-0.80;97.10
26687;DHT22;14298;50.900;4.648;2022-12-10T06:32:13;-0.70;97.10
26687;DHT22;14298;50.900;4.648;2022-12-10T06:34:41;-0.70;97.10
26687;DHT22;14298;50.900;4.648;2022-12-10T06:37:10;-0.70;97.10
26687;DHT22;14298;50.900;4.648;2022-12-10T06:39:38;-0.60;97.10
26687;DHT22;14298;50.900;4.648;2022-12-10T06:42:06;-0.50;97.10
26687;DHT22;14298;50.900;4.648;2022-12-10T06:44:35;-0.50;97.10
26687;DHT22;14298;50.900;4.648;2022-12-10T06:47:04;-0.60;97.10
26687;DHT22;14298;50.900;4.648;2022-12-10T06:49:32;-0.50;97.10
26687;DHT22;14298;50.900;4.648;2022-12-10T06:52:00;-0.60;97.10
26687;DHT22;14298;50.900;4.648;2022-12-10T06:54:29;-0.60;97.10
26687;DHT22;14298;50.900;4.648;2022-12-10T06:56:58;-0.70;97.10
26687;DHT22;14298;50.900;4.648;2022-12-10T06:59:26;-0.80;97.10
26687;DHT22;14298;50.900;4.648;2022-12-10T07:01:55;-0.80;97.10
26687;DHT22;14298;50.900;4.648;2022-12-10T07:04:23;-0.80;97.10
26687;DHT22;14298;50.900;4.648;2022-12-10T07:06:52;-0.80;97.10
26687;DHT22;14298;50.900;4.648;2022-12-10T07:09:20;-0.80;97.10
26687;DHT22;14298;50.900;4.648;2022-12-10T07:11:49;-0.90;97.10
26687;DHT22;14298;50.900;4.648;2022-12-10T07:14:17;-0.80;97.10
26687;DHT22;14298;50.900;4.648;2022-12-10T07:16:46;-0.90;97.10
26687;DHT22;14298;50.900;4.648;2022-12-10T07:19:14;-0.80;97.10
26687;DHT22;14298;50.900;4.648;2022-12-10T07:21:43;-0.80;97.10
26687;DHT22;14298;50.900;4.648;2022-12-10T07:24:15;-0.90;97.10
26687;DHT22;14298;50.900;4.648;2022-12-10T07:26:45;-0.80;97.10
26687;DHT22;14298;50.900;4.648;2022-12-10T07:29:16;-0.80;97.10
26687;DHT22;14298;50.900;4.648;2022-12-10T07:31:46;-0.70;97.10
26687;DHT22;14298;50.900;4.648;2022-12-10T07:34:16;-0.70;97.10
26687;DHT22;14298;50.900;4.648;2022-12-10T07:36:45;-0.80;97.10
26687;DHT22;14298;50.900;4.648;2022-12-10T07:39:14;-0.70;97.10
26687;DHT22;14298;50.900;4.648;2022-12-10T07:41:48;-0.60;97.10
26687;DHT22;14298;50.900;4.648;2022-12-10T07:44:23;-0.60;97.10
26687;DHT22;14298;50.900;4.648;2022-12-10T07:47:11;-0.60;97.10
26687;DHT22;14298;50.900;4.648;2022-12-10T07:49:40;-0.60;97.10
26687;DHT22;14298;50.900;4.648;2022-12-10T07:52:08;-0.60;97.10
26687;DHT22;14298;50.900;4.648;2022-12-10T07:54:37;-0.70;97.10
26687;DHT22;14298;50.900;4.648;2022-12-10T07:57:05;-0.70;97.10
26687;DHT22;14298;50.900;4.648;2022-12-10T07:59:33;-0.60;97.10
26687;DHT22;14298;50.900;4.648;2022-12-10T08:02:02;-0.60;97.10
26687;DHT22;14298;50.900;4.648;2022-12-10T08:04:30;-0.70;97.10
26687;DHT22;14298;50.900;4.648;2022-12-10T08:06:58;-0.70;97.10
26687;DHT22;14298;50.900;4.648;2022-12-10T08:09:27;-0.70;97.10
26687;DHT22;14298;50.900;4.648;2022-12-10T08:11:55;-0.70;97.10
26687;DHT22;14298;50.900;4.648;2022-12-10T08:14:23;-0.60;97.10
26687;DHT22;14298;50.900;4.648;2022-12-10T08:16:52;-0.60;97.10
26687;DHT22;14298;50.900;4.648;2022-12-10T08:19:20;-0.60;97.10
26687;DHT22;14298;50.900;4.648;2022-12-10T08:21:48;-0.60;97.10
26687;DHT22;14298;50.900;4.648;2022-12-10T08:24:17;-0.60;97.10
26687;DHT22;14298;50.900;4.648;2022-12-10T08:26:45;-0.50;97.10
26687;DHT22;14298;50.900;4.648;2022-12-10T08:29:13;-0.60;97.10
26687;DHT22;14298;50.900;4.648;2022-12-10T08:31:42;-0.60;97.10
26687;DHT22;14298;50.900;4.648;2022-12-10T08:34:17;-0.70;97.10
26687;DHT22;14298;50.900;4.648;2022-12-10T08:36:46;-0.70;97.10
26687;DHT22;14298;50.900;4.648;2022-12-10T08:39:15;-0.70;97.10
26687;DHT22;14298;50.900;4.648;2022-12-10T08:41:44;-0.70;97.10
26687;DHT22;14298;50.900;4.648;2022-12-10T08:44:13;-0.70;97.10
26687;DHT22;14298;50.900;4.648;2022-12-10T08:47:01;-0.80;97.10
26687;DHT22;14298;50.900;4.648;2022-12-10T08:49:29;-0.80;97.10
26687;DHT22;14298;50.900;4.648;2022-12-10T08:51:57;-0.80;97.10
26687;DHT22;14298;50.900;4.648;2022-12-10T08:54:26;-0.80;97.10
26687;DHT22;14298;50.900;4.648;2022-12-10T08:56:54;-0.60;97.10
26687;DHT22;14298;50.900;4.648;2022-12-10T08:59:22;-0.60;97.10
26687;DHT22;14298;50.900;4.648;2022-12-10T09:01:52;-0.50;97.10
26687;DHT22;14298;50.900;4.648;2022-12-10T09:04:20;-0.50;97.10
26687;DHT22;14298;50.900;4.648;2022-12-10T09:06:48;-0.40;97.10
26687;DHT22;14298;50.900;4.648;2022-12-10T09:09:17;-0.30;97.10
26687;DHT22;14298;50.900;4.648;2022-12-10T09:11:46;-0.30;97.10
26687;DHT22;14298;50.900;4.648;2022-12-10T09:14:14;-0.30;97.10
26687;DHT22;14298;50.900;4.648;2022-12-10T09:16:42;-0.40;97.10
26687;DHT22;14298;50.900;4.648;2022-12-10T09:19:11;-0.40;97.10
26687;DHT22;14298;50.900;4.648;2022-12-10T09:21:41;-0.30;97.10
26687;DHT22;14298;50.900;4.648;2022-12-10T09:24:09;-0.20;97.10
26687;DHT22;14298;50.900;4.648;2022-12-10T09:26:37;-0.20;97.10
26687;DHT22;14298;50.900;4.648;2022-12-10T09:29:06;-0.20;97.10
26687;DHT22;14298;50.900;4.648;2022-12-10T09:31:34;-0.30;97.10
26687;DHT22;14298;50.900;4.648;2022-12-10T09:34:02;-0.30;97.10
26687;DHT22;14298;50.900;4.648;2022-12-10T09:36:31;-0.40;97.10
26687;DHT22;14298;50.900;4.648;2022-12-10T09:38:59;-0.60;97.10
26687;DHT22;14298;50.900;4.648;2022-12-10T09:41:35;-0.50;97.10
26687;DHT22;14298;50.900;4.648;2022-12-10T09:44:11;-0.50;97.10
26687;DHT22;14298;50.900;4.648;2022-12-10T09:46:54;-0.70;97.10
26687;DHT22;14298;50.900;4.648;2022-12-10T09:55:10;-0.70;97.10
26687;DHT22;14298;50.900;4.648;2022-12-10T09:57:45;-0.50;97.10
26687;DHT22;14298;50.900;4.648;2022-12-10T10:00:29;-0.50;97.10
26687;DHT22;14298;50.900;4.648;2022-12-10T10:02:58;-0.50;97.10
26687;DHT22;14298;50.900;4.648;2022-12-10T10:05:33;-0.50;97.10
26687;DHT22;14298;50.900;4.648;2022-12-10T10:08:34;-0.30;97.10
26687;DHT22;14298;50.900;4.648;2022-12-10T10:11:04;-0.30;97.10
26687;DHT22;14298;50.900;4.648;2022-12-10T10:13:48;-0.20;97.10
26687;DHT22;14298;50.900;4.648;2022-12-10T10:19:05;-0.10;97.10
26687;DHT22;14298;50.900;4.648;2022-12-10T10:21:38;-0.10;97.10
26687;DHT22;14298;50.900;4.648;2022-12-10T10:24:15;-0.10;97.10
26687;DHT22;14298;50.900;4.648;2022-12-10T10:26:44;-0.10;97.10
26687;DHT22;14298;50.900;4.648;2022-12-10T10:29:16;0.00;97.10
26687;DHT22;14298;50.900;4.648;2022-12-10T10:31:45;0.10;97.10
26687;DHT22;14298;50.900;4.648;2022-12-10T10:34:19;0.10;97.10
26687;DHT22;14298;50.900;4.648;2022-12-10T10:36:56;0.10;97.10
26687;DHT22;14298;50.900;4.648;2022-12-10T10:39:46;0.30;97.10
26687;DHT22;14298;50.900;4.648;2022-12-10T10:42:24;0.40;97.10
26687;DHT22;14298;50.900;4.648;2022-12-10T10:44:48;0.50;97.10
26687;DHT22;14298;50.900;4.648;2022-12-10T10:47:31;0.50;97.10
26687;DHT22;14298;50.900;4.648;2022-12-10T10:50:02;0.50;97.10
26687;DHT22;14298;50.900;4.648;2022-12-10T10:52:36;0.50;97.10
26687;DHT22;14298;50.900;4.648;2022-12-10T10:55:09;0.50;97.10
26687;DHT22;14298;50.900;4.648;2022-12-10T10:57:36;0.50;97.10
26687;DHT22;14298;50.900;4.648;2022-12-10T11:00:11;0.60;97.10
26687;DHT22;14298;50.900;4.648;2022-12-10T11:02:40;0.60;97.10
26687;DHT22;14298;50.900;4.648;2022-12-10T11:08:01;0.60;97.10
26687;DHT22;14298;50.900;4.648;2022-12-10T11:10:30;0.60;97.10
26687;DHT22;14298;50.900;4.648;2022-12-10T11:13:25;0.60;97.10
26687;DHT22;14298;50.900;4.648;2022-12-10T11:16:01;0.60;97.10
26687;DHT22;14298;50.900;4.648;2022-12-10T11:18:37;0.60;97.10
26687;DHT22;14298;50.900;4.648;2022-12-10T11:23:46;0.40;97.10
26687;DHT22;14298;50.900;4.648;2022-12-10T11:26:48;0.60;97.10
26687;DHT22;14298;50.900;4.648;2022-12-10T11:38:02;0.60;97.10
26687;DHT22;14298;50.900;4.648;2022-12-10T11:40:30;0.80;97.10
26687;DHT22;14298;50.900;4.648;2022-12-10T11:51:35;0.70;97.10
26687;DHT22;14298;50.900;4.648;2022-12-10T11:57:01;1.00;97.10
26687;DHT22;14298;50.900;4.648;2022-12-10T12:07:51;1.00;97.10
26687;DHT22;14298;50.900;4.648;2022-12-10T12:10:34;1.10;97.10
26687;DHT22;14298;50.900;4.648;2022-12-10T12:16:15;1.40;97.10
26687;DHT22;14298;50.900;4.648;2022-12-10T12:21:36;1.40;97.10
26687;DHT22;14298;50.900;4.648;2022-12-10T12:24:18;1.40;97.10
26687;DHT22;14298;50.900;4.648;2022-12-10T12:26:58;1.40;97.10
26687;DHT22;14298;50.900;4.648;2022-12-10T12:29:33;1.50;97.10
26687;DHT22;14298;50.900;4.648;2022-12-10T12:32:20;1.50;97.10
26687;DHT22;14298;50.900;4.648;2022-12-10T12:40:39;1.60;97.10
26687;DHT22;14298;50.900;4.648;2022-12-10T12:43:18;1.60;97.10
26687;DHT22;14298;50.900;4.648;2022-12-10T12:46:19;1.40;97.10
26687;DHT22;14298;50.900;4.648;2022-12-10T12:48:52;1.40;97.10
26687;DHT22;14298;50.900;4.648;2022-12-10T12:51:33;1.50;97.10
26687;DHT22;14298;50.900;4.648;2022-12-10T12:53:51;1.60;97.10
26687;DHT22;14298;50.900;4.648;2022-12-10T13:05:01;1.80;97.10
26687;DHT22;14298;50.900;4.648;2022-12-10T13:07:34;1.90;97.10
26687;DHT22;14298;50.900;4.648;2022-12-10T13:15:37;2.10;97.10
26687;DHT22;14298;50.900;4.648;2022-12-10T13:21:16;2.00;97.10
26687;DHT22;14298;50.900;4.648;2022-12-10T13:23:34;2.00;97.10
26687;DHT22;14298;50.900;4.648;2022-12-10T13:25:59;1.90;97.10
26687;DHT22;14298;50.900;4.648;2022-12-10T13:28:50;2.00;97.10
26687;DHT22;14298;50.900;4.648;2022-12-10T13:31:39;2.00;97.10
26687;DHT22;14298;50.900;4.648;2022-12-10T13:34:05;2.10;97.10
26687;DHT22;14298;50.900;4.648;2022-12-10T13:42:22;1.90;97.10
26687;DHT22;14298;50.900;4.648;2022-12-10T13:56:12;1.80;97.10
26687;DHT22;14298;50.900;4.648;2022-12-10T14:07:07;1.60;97.10
26687;DHT22;14298;50.900;4.648;2022-12-10T14:09:41;1.70;97.10
26687;DHT22;14298;50.900;4.648;2022-12-10T14:12:18;1.70;97.10
26687;DHT22;14298;50.900;4.648;2022-12-10T14:14:46;1.80;97.10
26687;DHT22;14298;50.900;4.648;2022-12-10T14:17:18;1.70;97.10
26687;DHT22;14298;50.900;4.648;2022-12-10T14:19:50;1.70;97.10
26687;DHT22;14298;50.900;4.648;2022-12-10T14:22:34;1.70;97.10
26687;DHT22;14298;50.900;4.648;2022-12-10T14:25:23;1.80;97.10
26687;DHT22;14298;50.900;4.648;2022-12-10T14:27:53;1.80;97.10
26687;DHT22;14298;50.900;4.648;2022-12-10T14:30:26;1.90;97.10
26687;DHT22;14298;50.900;4.648;2022-12-10T14:32:58;1.80;97.10
26687;DHT22;14298;50.900;4.648;2022-12-10T14:35:28;1.80;97.10
26687;DHT22;14298;50.900;4.648;2022-12-10T14:37:59;1.70;97.10
26687;DHT22;14298;50.900;4.648;2022-12-10T14:40:38;1.70;97.10
26687;DHT22;14298;50.900;4.648;2022-12-10T14:43:19;1.70;97.10
26687;DHT22;14298;50.900;4.648;2022-12-10T14:45:55;1.60;97.10
26687;DHT22;14298;50.900;4.648;2022-12-10T14:48:21;1.70;97.10
26687;DHT22;14298;50.900;4.648;2022-12-10T14:50:50;1.60;97.10
26687;DHT22;14298;50.900;4.648;2022-12-10T14:53:24;1.60;97.10
26687;DHT22;14298;50.900;4.648;2022-12-10T14:56:03;1.60;97.10
26687;DHT22;14298;50.900;4.648;2022-12-10T14:58:49;1.50;97.10
26687;DHT22;14298;50.900;4.648;2022-12-10T15:01:16;1.50;97.10
26687;DHT22;14298;50.900;4.648;2022-12-10T15:03:46;1.50;97.10
26687;DHT22;14298;50.900;4.648;2022-12-10T15:06:16;1.50;97.10
26687;DHT22;14298;50.900;4.648;2022-12-10T15:08:46;1.50;97.10
26687;DHT22;14298;50.900;4.648;2022-12-10T15:11:17;1.50;97.10
26687;DHT22;14298;50.900;4.648;2022-12-10T15:13:49;1.50;97.10
26687;DHT22;14298;50.900;4.648;2022-12-10T15:16:38;1.50;97.10
26687;DHT22;14298;50.900;4.648;2022-12-10T15:19:20;1.60;97.10
26687;DHT22;14298;50.900;4.648;2022-12-10T15:21:49;1.50;97.10
26687;DHT22;14298;50.900;4.648;2022-12-10T15:27:24;1.50;97.10
26687;DHT22;14298;50.900;4.648;2022-12-10T15:29:53;1.60;97.10
26687;DHT22;14298;50.900;4.648;2022-12-10T15:32:26;1.50;97.10
26687;DHT22;14298;50.900;4.648;2022-12-10T15:35:01;1.50;97.10
26687;DHT22;14298;50.900;4.648;2022-12-10T15:40:43;1.50;97.10
26687;DHT22;14298;50.900;4.648;2022-12-10T15:45:52;1.50;97.10
26687;DHT22;14298;50.900;4.648;2022-12-10T15:48:21;1.50;97.10
26687;DHT22;14298;50.900;4.648;2022-12-10T15:50:51;1.50;97.10
26687;DHT22;14298;50.900;4.648;2022-12-10T15:53:39;1.40;97.10
26687;DHT22;14298;50.900;4.648;2022-12-10T15:56:07;1.40;97.10
26687;DHT22;14298;50.900;4.648;2022-12-10T15:58:35;1.40;97.10
26687;DHT22;14298;50.900;4.648;2022-12-10T16:01:04;1.40;97.10
26687;DHT22;14298;50.900;4.648;2022-12-10T16:03:33;1.40;97.10
26687;DHT22;14298;50.900;4.648;2022-12-10T16:06:01;1.40;97.10
26687;DHT22;14298;50.900;4.648;2022-12-10T16:08:29;1.40;97.10
26687;DHT22;14298;50.900;4.648;2022-12-10T16:11:02;1.40;97.10
26687;DHT22;14298;50.900;4.648;2022-12-10T16:13:35;1.40;97.10
26687;DHT22;14298;50.900;4.648;2022-12-10T16:16:08;1.50;97.10
26687;DHT22;14298;50.900;4.648;2022-12-10T16:18:38;1.50;97.10
26687;DHT22;14298;50.900;4.648;2022-12-10T16:21:07;1.50;97.10
26687;DHT22;14298;50.900;4.648;2022-12-10T16:23:36;1.50;97.10
26687;DHT22;14298;50.900;4.648;2022-12-10T16:26:22;1.50;97.10
26687;DHT22;14298;50.900;4.648;2022-12-10T16:28:47;1.50;97.10
26687;DHT22;14298;50.900;4.648;2022-12-10T16:31:19;1.40;97.10
26687;DHT22;14298;50.900;4.648;2022-12-10T16:33:47;1.40;97.10
26687;DHT22;14298;50.900;4.648;2022-12-10T16:36:18;1.40;97.10
26687;DHT22;14298;50.900;4.648;2022-12-10T16:38:46;1.40;97.10
26687;DHT22;14298;50.900;4.648;2022-12-10T16:41:18;1.40;97.10
26687;DHT22;14298;50.900;4.648;2022-12-10T16:43:46;1.40;97.10
26687;DHT22;14298;50.900;4.648;2022-12-10T16:46:15;1.40;97.10
26687;DHT22;14298;50.900;4.648;2022-12-10T16:48:43;1.40;97.10
26687;DHT22;14298;50.900;4.648;2022-12-10T16:51:26;1.40;97.10
26687;DHT22;14298;50.900;4.648;2022-12-10T16:53:57;1.40;97.10
26687;DHT22;14298;50.900;4.648;2022-12-10T16:56:25;1.40;97.10
26687;DHT22;14298;50.900;4.648;2022-12-10T16:58:55;1.40;97.10
26687;DHT22;14298;50.900;4.648;2022-12-10T17:01:25;1.40;97.10
26687;DHT22;14298;50.900;4.648;2022-12-10T17:03:56;1.40;97.10
26687;DHT22;14298;50.900;4.648;2022-12-10T17:06:26;1.40;97.10
26687;DHT22;14298;50.900;4.648;2022-12-10T17:08:55;1.40;97.10
26687;DHT22;14298;50.900;4.648;2022-12-10T17:11:26;1.40;97.10
26687;DHT22;14298;50.900;4.648;2022-12-10T17:14:23;1.40;97.10
26687;DHT22;14298;50.900;4.648;2022-12-10T17:16:54;1.40;97.10
26687;DHT22;14298;50.900;4.648;2022-12-10T17:19:34;1.40;97.10
26687;DHT22;14298;50.900;4.648;2022-12-10T17:21:59;1.30;97.10
26687;DHT22;14298;50.900;4.648;2022-12-10T17:24:28;1.30;97.10
26687;DHT22;14298;50.900;4.648;2022-12-10T17:27:00;1.30;97.10
26687;DHT22;14298;50.900;4.648;2022-12-10T17:29:36;1.30;97.10
26687;DHT22;14298;50.900;4.648;2022-12-10T17:31:59;1.30;97.10
26687;DHT22;14298;50.900;4.648;2022-12-10T17:34:28;1.30;97.10
26687;DHT22;14298;50.900;4.648;2022-12-10T17:36:56;1.30;97.10
26687;DHT22;14298;50.900;4.648;2022-12-10T17:39:25;1.30;97.10
26687;DHT22;14298;50.900;4.648;2022-12-10T17:41:55;1.40;97.10
26687;DHT22;14298;50.900;4.648;2022-12-10T17:44:23;1.40;97.10
26687;DHT22;14298;50.900;4.648;2022-12-10T17:46:52;1.40;97.10
26687;DHT22;14298;50.900;4.648;2022-12-10T17:49:39;1.40;97.10
26687;DHT22;14298;50.900;4.648;2022-12-10T17:52:09;1.40;97.10
26687;DHT22;14298;50.900;4.648;2022-12-10T17:54:37;1.40;97.10
26687;DHT22;14298;50.900;4.648;2022-12-10T17:57:10;1.40;97.10
26687;DHT22;14298;50.900;4.648;2022-12-10T17:59:39;1.40;97.10
26687;DHT22;14298;50.900;4.648;2022-12-10T18:02:10;1.40;97.10
26687;DHT22;14298;50.900;4.648;2022-12-10T18:04:39;1.40;97.10
26687;DHT22;14298;50.900;4.648;2022-12-10T18:07:13;1.40;97.10
26687;DHT22;14298;50.900;4.648;2022-12-10T18:09:43;1.40;97.10